Time;durP1;ratioP1;P1;durP2;ratioP2;P2;SDS_P1;SDS_P2;PMS_P1;PMS_P2;Temp;Humidity;BMP_temperature;BMP_pressure;BME280_temperature;BME280_humidity;BME280_pressure;Samples;Min_cycle;Max_cycle;Signal;HPM_P1;HPM_P2
2024/01/23 00:01:16;;;;;;;38.22;5.80;;;7.00;99.90;;;;;;5060327;28;20166;-64
2024/01/23 00:03:43;;;;;;;33.55;4.97;;;6.90;99.90;;;;;;5051511;28;20057;-63
2024/01/23 00:06:12;;;;;;;19.95;3.53;;;7.10;99.90;;;;;;5052387;28;20053;-63
2024/01/23 00:08:38;;;;;;;21.70;4.88;;;7.00;99.90;;;;;;5052017;28;20057;-62
2024/01/23 00:11:06;;;;;;;14.05;2.83;;;7.10;99.90;;;;;;5062540;28;20056;-63
2024/01/23 00:13:32;;;;;;;19.55;4.60;;;6.90;99.90;;;;;;5070823;28;20434;-63
2024/01/23 00:15:58;;;;;;;12.88;3.38;;;6.90;99.90;;;;;;5072508;28;20053;-63
2024/01/23 00:18:26;;;;;;;16.85;4.80;;;6.90;99.90;;;;;;5070575;28;20056;-63
2024/01/23 00:20:53;;;;;;;10.82;2.85;;;6.80;99.90;;;;;;5069800;28;20063;-63
2024/01/23 00:23:19;;;;;;;17.40;2.88;;;6.70;99.90;;;;;;5066351;28;20045;-63
2024/01/23 00:25:47;;;;;;;17.10;3.28;;;6.80;99.90;;;;;;5050657;28;20055;-63
2024/01/23 00:28:13;;;;;;;9.60;2.60;;;6.70;99.90;;;;;;5051716;28;20489;-64
2024/01/23 00:30:40;;;;;;;14.45;3.20;;;6.70;99.90;;;;;;5059187;28;20044;-63
2024/01/23 00:33:12;;;;;;;16.52;3.63;;;6.90;99.90;;;;;;5070708;28;20049;-63
2024/01/23 00:35:43;;;;;;;17.08;2.95;;;6.70;99.90;;;;;;5071028;28;20094;-61
2024/01/23 00:38:09;;;;;;;12.52;3.35;;;6.70;99.90;;;;;;5070872;28;20094;-61
2024/01/23 00:40:36;;;;;;;16.50;3.65;;;6.70;99.90;;;;;;5064808;28;20056;-61
2024/01/23 00:43:02;;;;;;;25.38;4.63;;;6.80;99.90;;;;;;5050745;28;20049;-60
2024/01/23 00:45:28;;;;;;;16.25;3.80;;;6.70;99.90;;;;;;5051258;28;20049;-62
2024/01/23 00:47:55;;;;;;;18.60;4.28;;;6.80;99.90;;;;;;5050570;28;20045;-61
2024/01/23 00:50:21;;;;;;;27.25;5.03;;;6.90;99.90;;;;;;5054391;28;20407;-60
2024/01/23 00:52:48;;;;;;;18.20;4.03;;;6.70;99.90;;;;;;5070503;28;20774;-61
2024/01/23 00:55:14;;;;;;;40.63;5.38;;;6.70;99.90;;;;;;5070722;28;20076;-61
2024/01/23 00:57:40;;;;;;;35.88;5.80;;;6.70;99.90;;;;;;5069947;28;20443;-61
2024/01/23 01:00:09;;;;;;;24.00;4.80;;;6.90;99.90;;;;;;5068370;28;20048;-60
2024/01/23 01:02:36;;;;;;;19.50;4.00;;;6.90;99.90;;;;;;5050338;28;20063;-61
2024/01/23 01:05:02;;;;;;;17.88;4.22;;;6.80;99.90;;;;;;5050425;28;20060;-61
2024/01/23 01:07:29;;;;;;;23.02;5.20;;;6.80;99.90;;;;;;5049852;28;20334;-62
2024/01/23 01:09:55;;;;;;;22.10;4.72;;;6.80;99.90;;;;;;5049914;28;20284;-60
2024/01/23 01:12:21;;;;;;;17.40;3.85;;;6.70;99.90;;;;;;5049747;28;20053;-62
2024/01/23 01:14:48;;;;;;;23.65;4.85;;;6.70;99.90;;;;;;5050439;28;20049;-61
2024/01/23 01:17:14;;;;;;;27.15;5.15;;;6.70;99.90;;;;;;5049814;28;20045;-61
2024/01/23 01:19:40;;;;;;;22.38;4.30;;;6.60;99.90;;;;;;5049924;28;20527;-61
2024/01/23 01:22:06;;;;;;;21.17;5.93;;;6.70;99.90;;;;;;5068134;28;20040;-61
2024/01/23 01:24:33;;;;;;;18.30;3.58;;;6.70;99.90;;;;;;5069868;28;20049;-62
2024/01/23 01:26:59;;;;;;;32.05;7.38;;;6.80;99.90;;;;;;5069091;28;20349;-61
2024/01/23 01:29:25;;;;;;;18.50;3.40;;;6.80;99.90;;;;;;5068733;28;20057;-62
2024/01/23 01:31:52;;;;;;;27.73;5.65;;;6.70;99.90;;;;;;5053875;28;20057;-62
2024/01/23 01:34:18;;;;;;;22.38;5.57;;;6.70;99.90;;;;;;5049799;28;20063;-60
2024/01/23 01:36:44;;;;;;;15.98;3.95;;;6.70;99.90;;;;;;5049165;28;20048;-61
2024/01/23 01:39:13;;;;;;;29.83;5.72;;;6.70;99.90;;;;;;5050133;28;20063;-61
2024/01/23 01:41:39;;;;;;;24.90;5.30;;;6.70;99.90;;;;;;5063623;28;20052;-59
2024/01/23 01:44:05;;;;;;;45.58;7.03;;;6.70;99.90;;;;;;5069409;28;20536;-62
2024/01/23 01:46:31;;;;;;;24.65;5.40;;;6.70;99.90;;;;;;5069379;28;20407;-61
2024/01/23 01:48:58;;;;;;;31.38;6.63;;;6.70;99.90;;;;;;5069602;28;20060;-61
2024/01/23 01:51:27;;;;;;;20.33;4.38;;;6.60;99.90;;;;;;5057213;28;20068;-61
2024/01/23 01:53:59;;;;;;;16.30;3.40;;;6.70;99.90;;;;;;5049436;28;20469;-62
2024/01/23 01:56:27;;;;;;;13.38;3.53;;;6.60;99.90;;;;;;5048174;28;20156;-60
2024/01/23 01:58:54;;;;;;;18.13;4.57;;;6.50;99.90;;;;;;5048385;28;20053;-61
2024/01/23 02:01:21;;;;;;;13.85;3.25;;;6.50;99.90;;;;;;5059700;28;20052;-61
2024/01/23 02:03:47;;;;;;;18.13;4.70;;;6.50;99.90;;;;;;5069281;28;20044;-60
2024/01/23 02:06:14;;;;;;;15.63;4.40;;;6.50;99.90;;;;;;5067839;28;20095;-61
2024/01/23 02:08:41;;;;;;;28.30;7.28;;;6.50;99.90;;;;;;5067795;28;20500;-62
2024/01/23 02:11:08;;;;;;;17.30;4.82;;;6.50;99.90;;;;;;5058370;28;20074;-61
2024/01/23 02:13:35;;;;;;;18.85;3.38;;;6.50;99.90;;;;;;5048844;28;20453;-61
2024/01/23 02:16:02;;;;;;;18.50;5.05;;;6.40;99.90;;;;;;5048868;28;20045;-61
2024/01/23 02:18:28;;;;;;;28.85;5.38;;;6.40;99.90;;;;;;5049301;28;20061;-60
2024/01/23 02:20:55;;;;;;;25.77;4.93;;;6.50;99.90;;;;;;5056435;28;20110;-62
2024/01/23 02:23:30;;;;;;;23.38;4.68;;;6.50;99.90;;;;;;5067405;28;20044;-61
2024/01/23 02:25:57;;;;;;;15.32;4.20;;;6.50;99.90;;;;;;5068659;28;20436;-60
2024/01/23 02:28:23;;;;;;;20.67;4.95;;;6.40;99.90;;;;;;5068430;28;20130;-61
2024/01/23 02:30:50;;;;;;;16.42;4.10;;;6.30;99.90;;;;;;5061448;28;20521;-60
2024/01/23 02:33:16;;;;;;;20.23;4.63;;;6.50;99.90;;;;;;5048349;28;20401;-61
2024/01/23 02:35:43;;;;;;;25.63;4.82;;;6.40;99.90;;;;;;5047437;28;20048;-60
2024/01/23 02:38:09;;;;;;;25.77;5.05;;;6.40;99.90;;;;;;5048368;28;20049;-60
2024/01/23 02:40:35;;;;;;;21.25;5.25;;;6.40;99.90;;;;;;5053571;28;20102;-59
2024/01/23 02:43:02;;;;;;;24.45;5.93;;;6.30;99.90;;;;;;5068212;28;20045;-60
2024/01/23 02:45:28;;;;;;;35.13;6.10;;;6.40;99.90;;;;;;5068504;28;20045;-61
2024/01/23 02:47:56;;;;;;;34.97;9.18;;;6.40;99.90;;;;;;5067191;28;20052;-60
2024/01/23 02:50:22;;;;;;;35.08;7.80;;;6.30;99.90;;;;;;5065102;28;20389;-61
2024/01/23 02:52:52;;;;;;;27.20;6.70;;;6.40;99.90;;;;;;5048609;28;20078;-61
2024/01/23 02:55:18;;;;;;;33.28;6.70;;;6.50;99.90;;;;;;5047267;28;20655;-61
2024/01/23 02:57:46;;;;;;;17.23;4.13;;;6.40;99.90;;;;;;5047866;28;20372;-60
2024/01/23 03:00:12;;;;;;;17.00;3.88;;;6.30;99.90;;;;;;5049813;28;20118;-61
2024/01/23 03:02:39;;;;;;;15.52;4.07;;;6.40;99.90;;;;;;5068165;28;20186;-59
2024/01/23 03:05:05;;;;;;;16.17;3.22;;;6.40;99.90;;;;;;5060861;28;20118;-60
2024/01/23 03:07:31;;;;;;;14.15;3.40;;;6.20;99.90;;;;;;5047787;28;20045;-60
2024/01/23 03:10:00;;;;;;;16.35;3.92;;;6.30;99.90;;;;;;5048065;28;20072;-61
2024/01/23 03:12:26;;;;;;;16.75;3.25;;;6.50;99.90;;;;;;5067876;28;20079;-60
2024/01/23 03:14:53;;;;;;;17.75;3.65;;;6.40;99.90;;;;;;5050348;28;20078;-61
2024/01/23 03:17:21;;;;;;;19.55;3.85;;;6.30;99.90;;;;;;5067582;28;20059;-61
2024/01/23 03:19:48;;;;;;;22.67;4.78;;;6.40;99.90;;;;;;5067157;28;20052;-60
2024/01/23 03:22:15;;;;;;;18.88;3.88;;;6.50;99.90;;;;;;5048099;28;20071;-61
2024/01/23 03:24:42;;;;;;;19.65;4.07;;;6.50;99.90;;;;;;5046736;28;20527;-60
2024/01/23 03:27:09;;;;;;;18.30;4.15;;;6.60;99.90;;;;;;5047807;28;20056;-61
2024/01/23 03:29:40;;;;;;;21.42;4.32;;;6.60;99.90;;;;;;5048170;28;20478;-59
2024/01/23 03:32:09;;;;;;;19.50;4.05;;;6.60;99.90;;;;;;5064592;28;20495;-61
2024/01/23 03:34:36;;;;;;;14.55;3.92;;;6.70;99.90;;;;;;5067105;28;20552;-61
2024/01/23 03:37:05;;;;;;;17.80;4.50;;;6.70;99.90;;;;;;5067151;28;20139;-61
2024/01/23 03:39:31;;;;;;;17.83;4.63;;;6.70;99.90;;;;;;5068494;28;20056;-60
2024/01/23 03:41:59;;;;;;;19.38;4.32;;;6.90;99.90;;;;;;5051727;28;20048;-59
2024/01/23 03:44:25;;;;;;;20.08;4.00;;;6.80;99.90;;;;;;5047939;28;20416;-60
2024/01/23 03:46:53;;;;;;;17.13;3.70;;;6.80;99.90;;;;;;5047356;28;20060;-62
2024/01/23 03:49:19;;;;;;;19.35;4.22;;;6.80;99.90;;;;;;5048040;28;20045;-59
2024/01/23 03:51:46;;;;;;;27.67;5.90;;;6.70;99.90;;;;;;5060860;28;20060;-62
2024/01/23 03:54:12;;;;;;;24.65;5.97;;;6.70;99.90;;;;;;5068119;28;20106;-61
2024/01/23 03:56:38;;;;;;;23.95;5.38;;;6.90;99.90;;;;;;5067293;28;20056;-60
2024/01/23 03:59:05;;;;;;;17.25;4.30;;;6.80;99.90;;;;;;5067725;28;20139;-62
2024/01/23 04:01:31;;;;;;;21.63;4.45;;;6.80;99.90;;;;;;5055435;28;20068;-61
2024/01/23 04:03:57;;;;;;;25.73;5.15;;;6.90;99.90;;;;;;5048135;28;20072;-60
2024/01/23 04:06:24;;;;;;;19.13;4.63;;;6.90;99.90;;;;;;5047295;28;20053;-61
2024/01/23 04:08:50;;;;;;;15.60;3.38;;;6.90;99.90;;;;;;5047390;28;20493;-61
2024/01/23 04:11:16;;;;;;;21.85;5.13;;;7.00;99.90;;;;;;5057742;28;20532;-61
2024/01/23 04:13:43;;;;;;;24.42;4.57;;;6.80;99.90;;;;;;5067623;28;20056;-62
2024/01/23 04:16:10;;;;;;;25.77;5.15;;;6.90;99.90;;;;;;5067175;28;20064;-62
2024/01/23 04:18:36;;;;;;;20.08;4.97;;;7.00;99.90;;;;;;5067221;28;20059;-61
2024/01/23 04:21:05;;;;;;;22.05;4.65;;;7.00;99.90;;;;;;5059575;28;20056;-61
2024/01/23 04:23:31;;;;;;;20.55;4.22;;;6.90;99.90;;;;;;5047070;28;20045;-61
2024/01/23 04:25:57;;;;;;;26.02;4.90;;;7.00;99.90;;;;;;5046986;28;20060;-60
2024/01/23 04:28:24;;;;;;;27.83;5.53;;;6.90;99.90;;;;;;5047194;28;20049;-61
2024/01/23 04:30:52;;;;;;;34.63;6.25;;;7.00;99.90;;;;;;5051943;28;20048;-60
2024/01/23 04:33:19;;;;;;;28.20;5.55;;;7.00;99.90;;;;;;5067962;28;20064;-61
2024/01/23 04:35:46;;;;;;;31.88;6.55;;;6.90;99.90;;;;;;5067474;28;20324;-60
2024/01/23 04:38:12;;;;;;;17.80;5.30;;;6.90;99.90;;;;;;5065756;28;20322;-61
2024/01/23 04:40:38;;;;;;;30.63;7.88;;;7.00;99.90;;;;;;5061492;28;20052;-61
2024/01/23 04:43:05;;;;;;;28.10;6.85;;;7.00;99.90;;;;;;5046020;28;20048;-60
2024/01/23 04:45:31;;;;;;;22.58;5.30;;;6.90;99.90;;;;;;5047306;28;20041;-61
2024/01/23 04:47:57;;;;;;;21.52;4.47;;;6.90;99.90;;;;;;5049322;28;20408;-61
2024/01/23 04:50:23;;;;;;;22.25;5.80;;;6.90;99.90;;;;;;5053230;28;20524;-61
2024/01/23 04:52:52;;;;;;;25.70;5.60;;;7.00;99.90;;;;;;5070888;28;20307;-61
2024/01/23 04:55:18;;;;;;;20.10;5.20;;;6.90;99.90;;;;;;5070745;28;20132;-61
2024/01/23 04:57:45;;;;;;;18.77;5.45;;;6.90;99.90;;;;;;5070045;28;20345;-61
2024/01/23 05:00:12;;;;;;;19.40;5.10;;;6.90;99.90;;;;;;5069712;28;20526;-60
2024/01/23 05:02:38;;;;;;;15.55;3.78;;;7.00;99.90;;;;;;5049324;28;20372;-61
2024/01/23 05:05:05;;;;;;;17.85;4.95;;;7.00;99.90;;;;;;5050855;28;20048;-61
2024/01/23 05:07:31;;;;;;;14.65;4.47;;;6.90;99.90;;;;;;5050503;28;20048;-61
2024/01/23 05:09:58;;;;;;;16.02;3.60;;;7.00;99.90;;;;;;5050299;28;20155;-61
2024/01/23 05:12:24;;;;;;;19.85;5.68;;;7.00;99.90;;;;;;5068975;28;20071;-60
2024/01/23 05:14:50;;;;;;;22.73;4.75;;;7.00;99.90;;;;;;5070652;28;20060;-62
2024/01/23 05:17:17;;;;;;;16.05;4.40;;;6.90;99.90;;;;;;5070663;28;20168;-60
2024/01/23 05:19:43;;;;;;;26.63;5.50;;;6.90;99.90;;;;;;5071055;28;20091;-60
2024/01/23 05:22:09;;;;;;;18.08;4.60;;;6.90;99.90;;;;;;5053238;28;20071;-59
2024/01/23 05:24:36;;;;;;;19.23;5.63;;;7.00;99.90;;;;;;5050184;28;20063;-62
2024/01/23 05:27:02;;;;;;;20.63;4.85;;;7.00;99.90;;;;;;5049686;28;20060;-60
2024/01/23 05:29:28;;;;;;;24.92;4.95;;;6.90;99.90;;;;;;5050228;28;20475;-61
2024/01/23 05:31:55;;;;;;;17.55;4.35;;;6.90;99.90;;;;;;5063302;28;20517;-61
2024/01/23 05:34:21;;;;;;;25.27;5.53;;;7.00;99.90;;;;;;5068897;28;20068;-61
2024/01/23 05:36:47;;;;;;;21.95;5.40;;;6.80;99.90;;;;;;5069815;28;20120;-61
2024/01/23 05:39:14;;;;;;;19.60;4.53;;;6.90;99.90;;;;;;5070647;28;20051;-61
2024/01/23 05:41:41;;;;;;;23.30;4.93;;;6.80;99.90;;;;;;5057262;28;20049;-62
2024/01/23 05:44:07;;;;;;;20.30;4.63;;;6.90;99.90;;;;;;5049873;28;20060;-60
2024/01/23 05:46:35;;;;;;;25.50;5.20;;;6.80;99.90;;;;;;5048089;28;20382;-61
2024/01/23 05:49:01;;;;;;;24.63;6.32;;;7.00;99.90;;;;;;5050133;28;20122;-61
2024/01/23 05:51:27;;;;;;;24.02;5.13;;;6.80;99.90;;;;;;5059982;28;20052;-61
2024/01/23 05:53:53;;;;;;;19.25;5.35;;;6.80;99.90;;;;;;5069899;28;20067;-61
2024/01/23 05:56:20;;;;;;;22.15;5.72;;;6.90;99.90;;;;;;5068998;28;20048;-60
2024/01/23 05:58:46;;;;;;;18.95;4.10;;;6.90;99.90;;;;;;5069281;28;20045;-60
2024/01/23 06:01:12;;;;;;;19.83;4.47;;;6.90;99.90;;;;;;5060847;28;20048;-61
2024/01/23 06:03:39;;;;;;;18.52;4.65;;;7.00;99.90;;;;;;5049095;28;20053;-60
2024/01/23 06:06:07;;;;;;;18.17;4.63;;;6.90;99.90;;;;;;5049135;28;20052;-58
2024/01/23 06:08:34;;;;;;;20.67;4.03;;;7.00;99.90;;;;;;5050784;28;20064;-61
2024/01/23 06:11:00;;;;;;;20.83;4.90;;;6.90;99.90;;;;;;5055325;28;20933;-60
2024/01/23 06:13:26;;;;;;;20.65;6.53;;;6.90;99.90;;;;;;5069510;28;20045;-61
2024/01/23 06:15:52;;;;;;;19.77;4.28;;;7.00;99.90;;;;;;5069684;28;20054;-61
2024/01/23 06:18:19;;;;;;;21.25;5.05;;;6.90;99.90;;;;;;5070918;28;20045;-63
2024/01/23 06:20:45;;;;;;;22.98;4.55;;;7.00;99.90;;;;;;5068875;28;20377;-60
2024/01/23 06:23:11;;;;;;;24.40;6.40;;;7.00;99.90;;;;;;5071089;28;20171;-60
2024/01/23 06:25:37;;;;;;;16.15;3.55;;;7.10;99.90;;;;;;5070827;28;20075;-62
2024/01/23 06:28:04;;;;;;;18.55;4.35;;;7.00;99.90;;;;;;5071702;28;20106;-61
2024/01/23 06:30:30;;;;;;;16.90;4.38;;;6.90;99.90;;;;;;5068906;28;20041;-60
2024/01/23 06:32:57;;;;;;;20.35;5.05;;;6.90;99.90;;;;;;5051782;28;20069;-61
2024/01/23 06:35:23;;;;;;;19.27;4.03;;;6.90;99.90;;;;;;5050125;28;20361;-60
2024/01/23 06:37:49;;;;;;;22.75;5.15;;;6.90;99.90;;;;;;5051243;28;20148;-60
2024/01/23 06:40:16;;;;;;;20.85;5.25;;;6.80;99.90;;;;;;5051313;28;20049;-61
2024/01/23 06:42:43;;;;;;;26.27;4.45;;;6.80;99.90;;;;;;5069958;28;20055;-62
2024/01/23 06:45:09;;;;;;;23.35;4.95;;;6.80;99.90;;;;;;5070626;28;20048;-59
2024/01/23 06:47:35;;;;;;;25.98;4.38;;;6.80;99.90;;;;;;5050786;28;20055;-61
2024/01/23 06:50:02;;;;;;;25.45;4.70;;;6.90;99.90;;;;;;5050872;28;20420;-61
2024/01/23 06:52:33;;;;;;;23.73;4.13;;;6.80;99.90;;;;;;5069397;28;20060;-62
2024/01/23 06:55:00;;;;;;;20.70;4.00;;;6.70;99.90;;;;;;5071081;28;20112;-61
2024/01/23 06:57:26;;;;;;;19.67;4.32;;;6.60;99.90;;;;;;5070757;28;20052;-62
2024/01/23 06:59:53;;;;;;;27.38;4.60;;;6.70;99.90;;;;;;5070368;28;20464;-64
2024/01/23 07:02:19;;;;;;;24.98;6.10;;;6.50;99.90;;;;;;5053108;28;20365;-61
2024/01/23 07:04:45;;;;;;;20.05;4.47;;;6.50;99.90;;;;;;5050977;28;20131;-61
2024/01/23 07:07:12;;;;;;;24.10;6.13;;;6.50;99.90;;;;;;5050567;28;20052;-59
2024/01/23 07:09:38;;;;;;;24.85;5.43;;;6.60;99.90;;;;;;5055778;28;20407;-61
2024/01/23 07:12:05;;;;;;;23.45;4.85;;;6.40;99.90;;;;;;5068668;28;20060;-61
2024/01/23 07:14:31;;;;;;;33.85;7.47;;;6.50;99.90;;;;;;5070974;28;20447;-62
2024/01/23 07:16:58;;;;;;;50.92;10.32;;;6.30;99.90;;;;;;5069358;28;20558;-62
2024/01/23 07:19:24;;;;;;;26.65;6.53;;;6.40;99.90;;;;;;5071117;28;20049;-61
2024/01/23 07:21:50;;;;;;;36.58;9.70;;;6.30;99.90;;;;;;5057427;28;20048;-62
2024/01/23 07:24:17;;;;;;;24.20;5.85;;;6.30;99.90;;;;;;5050760;28;20281;-62
2024/01/23 07:26:43;;;;;;;27.73;5.18;;;6.30;99.90;;;;;;5050306;28;20058;-60
2024/01/23 07:29:09;;;;;;;19.20;6.22;;;6.40;99.90;;;;;;5050646;28;20045;-61
2024/01/23 07:31:36;;;;;;;22.38;5.88;;;6.20;99.90;;;;;;5061986;28;20055;-60
2024/01/23 07:34:03;;;;;;;31.20;8.90;;;6.30;99.90;;;;;;5070607;28;20416;-61
2024/01/23 07:36:30;;;;;;;34.70;8.73;;;6.30;99.90;;;;;;5069054;28;20063;-60
2024/01/23 07:38:57;;;;;;;34.17;11.32;;;6.20;99.90;;;;;;5070690;28;20049;-64
2024/01/23 07:41:23;;;;;;;32.00;9.43;;;6.20;99.90;;;;;;5060133;28;20048;-60
2024/01/23 07:43:51;;;;;;;22.00;6.93;;;6.20;99.90;;;;;;5050615;28;20416;-62
2024/01/23 07:46:20;;;;;;;25.27;7.70;;;6.10;99.90;;;;;;5050204;28;20049;-62
2024/01/23 07:48:46;;;;;;;28.35;9.07;;;6.10;99.90;;;;;;5049726;28;20051;-60
2024/01/23 07:51:13;;;;;;;25.67;7.45;;;6.20;99.90;;;;;;5057574;28;20052;-63
2024/01/23 07:53:39;;;;;;;31.83;7.57;;;6.20;99.90;;;;;;5070401;28;20487;-62
2024/01/23 07:56:06;;;;;;;28.90;7.90;;;6.10;99.90;;;;;;5070374;28;20055;-62
2024/01/23 07:58:32;;;;;;;32.45;8.73;;;6.10;99.90;;;;;;5070445;28;20048;-61
2024/01/23 08:00:58;;;;;;;36.70;11.57;;;6.10;99.90;;;;;;5064517;28;20057;-63
2024/01/23 08:03:25;;;;;;;30.25;7.75;;;6.00;99.90;;;;;;5050162;28;20059;-61
2024/01/23 08:05:52;;;;;;;28.15;7.03;;;6.20;99.90;;;;;;5048861;28;20045;-63
2024/01/23 08:08:20;;;;;;;26.15;5.65;;;6.20;99.90;;;;;;5048103;28;20452;-62
2024/01/23 08:10:47;;;;;;;20.02;4.10;;;6.10;99.90;;;;;;5051124;28;20052;-62
2024/01/23 08:13:13;;;;;;;18.25;4.55;;;6.00;99.90;;;;;;5067970;28;20459;-60
2024/01/23 08:15:40;;;;;;;27.00;6.65;;;6.10;99.90;;;;;;5067812;28;20053;-62
2024/01/23 08:18:07;;;;;;;22.48;4.95;;;6.00;99.90;;;;;;5068404;28;20118;-61
2024/01/23 08:20:33;;;;;;;23.50;5.75;;;6.00;99.90;;;;;;5067630;28;20048;-62
2024/01/23 08:23:00;;;;;;;24.83;7.22;;;6.10;99.90;;;;;;5049981;28;20049;-62
2024/01/23 08:25:26;;;;;;;24.77;6.30;;;6.00;99.90;;;;;;5051165;28;20376;-64
2024/01/23 08:27:53;;;;;;;26.27;5.60;;;5.90;99.90;;;;;;5051663;28;20055;-61
2024/01/23 08:30:19;;;;;;;24.95;5.07;;;6.00;99.90;;;;;;5051975;28;20060;-62
2024/01/23 08:32:47;;;;;;;21.05;4.13;;;6.00;99.90;;;;;;5071161;28;20053;-61
2024/01/23 08:35:16;;;;;;;20.48;4.25;;;6.20;99.90;;;;;;5070924;28;20464;-62
2024/01/23 08:37:43;;;;;;;24.55;5.35;;;6.10;99.90;;;;;;5069610;28;20094;-61
2024/01/23 08:40:10;;;;;;;15.15;3.55;;;6.20;99.90;;;;;;5072205;28;20058;-61
2024/01/23 08:42:37;;;;;;;28.60;4.85;;;6.10;99.90;;;;;;5052592;28;20049;-62
2024/01/23 08:45:04;;;;;;;19.85;5.60;;;6.20;99.90;;;;;;5051480;28;20578;-61
2024/01/23 08:47:30;;;;;;;21.00;4.38;;;6.10;99.90;;;;;;5051334;28;20059;-62
2024/01/23 08:49:57;;;;;;;23.08;4.65;;;6.30;99.90;;;;;;5050609;28;20457;-62
2024/01/23 08:52:23;;;;;;;24.40;6.07;;;6.20;99.90;;;;;;5068116;28;20436;-61
2024/01/23 08:54:50;;;;;;;24.55;4.75;;;6.30;99.90;;;;;;5072283;28;20059;-59
2024/01/23 08:57:17;;;;;;;18.35;4.95;;;6.30;99.90;;;;;;5071987;28;20055;-62
2024/01/23 08:59:45;;;;;;;17.17;4.88;;;6.20;99.90;;;;;;5071850;28;20449;-61
2024/01/23 09:02:13;;;;;;;26.23;4.70;;;6.30;99.90;;;;;;5051962;28;20063;-63
2024/01/23 09:04:39;;;;;;;18.90;4.55;;;6.50;99.90;;;;;;5050388;28;20461;-61
2024/01/23 09:07:05;;;;;;;25.05;4.60;;;6.40;99.90;;;;;;5034324;28;20091;-60
2024/01/23 09:09:31;;;;;;;21.85;3.75;;;6.40;99.90;;;;;;5051948;28;20057;-61
2024/01/23 09:11:58;;;;;;;23.08;4.53;;;6.40;99.90;;;;;;5064657;28;20526;-62
2024/01/23 09:14:24;;;;;;;19.42;4.20;;;6.50;99.90;;;;;;5070433;28;20109;-62
2024/01/23 09:16:50;;;;;;;21.92;4.03;;;6.60;99.90;;;;;;5071278;28;20064;-63
2024/01/23 09:19:17;;;;;;;25.63;4.88;;;6.70;99.90;;;;;;5071617;28;20052;-61
2024/01/23 09:21:43;;;;;;;23.55;3.97;;;6.60;99.90;;;;;;5066056;28;20053;-62
2024/01/23 09:24:09;;;;;;;20.40;4.32;;;6.70;99.90;;;;;;5069250;28;20052;-62
2024/01/23 09:26:35;;;;;;;20.40;3.78;;;6.60;99.90;;;;;;5070008;28;20120;-62
2024/01/23 09:29:02;;;;;;;21.95;5.15;;;6.70;99.90;;;;;;5069850;28;20136;-62
2024/01/23 09:31:28;;;;;;;24.60;5.45;;;6.70;99.90;;;;;;5069038;28;20150;-62
2024/01/23 09:33:57;;;;;;;20.83;4.13;;;6.80;99.90;;;;;;5071095;28;20052;-60
2024/01/23 09:36:23;;;;;;;20.23;4.60;;;6.90;99.90;;;;;;5069299;28;20055;-62
2024/01/23 09:38:49;;;;;;;19.40;4.10;;;6.90;99.90;;;;;;5071481;28;20052;-61
2024/01/23 09:41:16;;;;;;;23.58;4.72;;;7.00;99.90;;;;;;5063946;28;20061;-62
2024/01/23 09:43:44;;;;;;;20.38;3.88;;;7.10;99.90;;;;;;5048596;28;20056;-62
2024/01/23 09:46:11;;;;;;;21.48;4.40;;;7.20;99.90;;;;;;5050233;28;20533;-61
2024/01/23 09:48:39;;;;;;;25.52;4.15;;;7.20;99.90;;;;;;5050707;28;20052;-62
2024/01/23 09:51:13;;;;;;;18.88;3.95;;;7.30;99.90;;;;;;5055694;28;20347;-63
2024/01/23 09:53:43;;;;;;;20.85;4.55;;;7.30;99.90;;;;;;5070595;28;20070;-61
2024/01/23 09:56:11;;;;;;;20.13;4.53;;;7.30;99.90;;;;;;5069996;28;20502;-62
2024/01/23 09:58:37;;;;;;;21.77;4.28;;;7.40;99.90;;;;;;5071124;28;20060;-62
2024/01/23 10:01:05;;;;;;;16.42;4.63;;;7.40;99.90;;;;;;5064289;28;20369;-62
2024/01/23 10:03:35;;;;;;;18.23;4.03;;;7.40;99.90;;;;;;5049272;28;20053;-62
2024/01/23 10:06:04;;;;;;;20.30;4.28;;;7.40;99.90;;;;;;5048952;28;20044;-61
2024/01/23 10:08:30;;;;;;;20.00;4.03;;;7.40;99.90;;;;;;5049014;28;20057;-61
2024/01/23 10:11:00;;;;;;;21.08;4.20;;;7.60;99.90;;;;;;5053398;28;20047;-62
2024/01/23 10:13:28;;;;;;;19.40;4.75;;;7.50;99.90;;;;;;5070164;28;20044;-62
2024/01/23 10:15:55;;;;;;;20.30;4.15;;;7.50;99.90;;;;;;5069732;28;20052;-62
2024/01/23 10:18:22;;;;;;;19.00;3.83;;;7.50;99.90;;;;;;5069150;28;20114;-63
2024/01/23 10:20:49;;;;;;;16.33;4.00;;;7.50;99.90;;;;;;5067177;28;20112;-61
2024/01/23 10:23:16;;;;;;;20.83;4.13;;;7.50;99.90;;;;;;5049826;28;20110;-62
2024/01/23 10:25:42;;;;;;;17.75;4.10;;;7.70;99.90;;;;;;5049442;28;20053;-62
2024/01/23 10:28:09;;;;;;;16.65;4.50;;;7.60;99.90;;;;;;5050282;28;20106;-63
2024/01/23 10:30:38;;;;;;;16.92;3.53;;;7.60;99.90;;;;;;5049108;28;20045;-65
2024/01/23 10:33:10;;;;;;;17.10;4.13;;;7.70;99.90;;;;;;5067756;28;20067;-62
2024/01/23 10:35:36;;;;;;;20.23;4.32;;;7.70;99.90;;;;;;5069317;28;20059;-62
2024/01/23 10:38:05;;;;;;;24.98;4.72;;;7.70;99.90;;;;;;5068633;28;20381;-62
2024/01/23 10:40:32;;;;;;;21.50;4.57;;;7.80;99.90;;;;;;5069176;28;20457;-62
2024/01/23 10:42:59;;;;;;;16.33;3.90;;;7.80;99.90;;;;;;5049824;28;20052;-61
2024/01/23 10:45:26;;;;;;;13.32;3.50;;;7.60;99.90;;;;;;5049545;28;20045;-62
2024/01/23 10:47:53;;;;;;;16.42;3.97;;;7.60;99.90;;;;;;5049695;28;20044;-62
2024/01/23 10:50:20;;;;;;;16.45;3.30;;;7.80;99.90;;;;;;5049966;28;20171;-62
2024/01/23 10:52:48;;;;;;;14.98;4.07;;;7.70;99.90;;;;;;5068759;28;20055;-61
2024/01/23 10:55:18;;;;;;;18.08;4.53;;;7.70;99.90;;;;;;5069017;28;20479;-62
2024/01/23 10:57:47;;;;;;;13.88;4.13;;;7.80;99.90;;;;;;5069191;28;20048;-62
2024/01/23 11:00:17;;;;;;;17.83;3.53;;;7.80;99.90;;;;;;5068371;28;20384;-62
2024/01/23 11:02:47;;;;;;;20.00;4.35;;;7.70;99.90;;;;;;5050947;28;20107;-62
2024/01/23 11:05:14;;;;;;;21.77;4.47;;;7.90;99.90;;;;;;5047942;28;20376;-62
2024/01/23 11:07:49;;;;;;;17.38;3.90;;;7.90;99.90;;;;;;5048072;28;20060;-63
2024/01/23 11:10:41;;;;;;;20.13;4.50;;;7.90;99.90;;;;;;5048090;28;20064;-62
2024/01/23 11:13:35;;;;;;;19.90;4.32;;;7.80;99.90;;;;;;5049372;28;20045;-62
2024/01/23 11:16:06;;;;;;;18.17;3.47;;;7.90;99.90;;;;;;5048851;28;20521;-62
2024/01/23 11:18:34;;;;;;;18.02;3.78;;;7.90;99.90;;;;;;5049316;28;20053;-63
2024/01/23 11:21:09;;;;;;;16.38;3.47;;;8.00;99.90;;;;;;5051717;28;20052;-61
2024/01/23 11:23:44;;;;;;;19.70;4.88;;;8.10;99.90;;;;;;5068900;28;20111;-61
2024/01/23 11:26:22;;;;;;;26.30;4.35;;;8.10;99.90;;;;;;5069093;28;20052;-62
2024/01/23 11:28:54;;;;;;;23.52;4.22;;;8.00;99.90;;;;;;5069123;28;20045;-62
2024/01/23 11:31:22;;;;;;;14.65;3.42;;;8.00;99.90;;;;;;5044352;28;20048;-62
2024/01/23 11:33:53;;;;;;;17.83;4.05;;;8.00;99.90;;;;;;5049132;28;20044;-62
2024/01/23 11:36:26;;;;;;;18.38;4.43;;;8.10;99.90;;;;;;5049133;28;20064;-62
2024/01/23 11:38:57;;;;;;;21.70;4.43;;;8.10;99.90;;;;;;5049344;28;20065;-61
2024/01/23 11:41:27;;;;;;;16.42;3.45;;;8.30;99.90;;;;;;5056133;28;20466;-62
2024/01/23 11:44:12;;;;;;;20.38;4.65;;;8.40;99.90;;;;;;5069159;28;20053;-63
2024/01/23 11:46:38;;;;;;;22.33;5.82;;;8.50;99.90;;;;;;5067564;28;20048;-62
2024/01/23 11:49:06;;;;;;;18.13;3.90;;;8.50;99.90;;;;;;5068984;28;20049;-61
2024/01/23 11:51:36;;;;;;;21.70;4.60;;;8.50;99.90;;;;;;5059818;28;20548;-62
2024/01/23 11:54:12;;;;;;;21.63;4.50;;;8.50;99.90;;;;;;5049309;28;20056;-62
2024/01/23 11:56:41;;;;;;;17.48;4.03;;;8.50;99.90;;;;;;5034795;28;20048;-61
2024/01/23 11:59:08;;;;;;;20.63;4.60;;;8.40;99.90;;;;;;5051829;28;20056;-63
2024/01/23 12:01:36;;;;;;;23.50;3.90;;;8.40;99.90;;;;;;5060988;28;20063;-64
2024/01/23 12:04:03;;;;;;;22.55;4.47;;;8.50;99.90;;;;;;5072254;28;20048;-61
2024/01/23 12:06:29;;;;;;;20.05;4.40;;;8.30;99.90;;;;;;5064740;28;20124;-63
2024/01/23 12:08:55;;;;;;;17.98;4.18;;;8.30;99.90;;;;;;5052795;28;20053;-61
2024/01/23 12:11:22;;;;;;;15.85;3.80;;;8.30;99.90;;;;;;5059040;28;20467;-62
2024/01/23 12:13:50;;;;;;;23.30;4.32;;;8.40;99.90;;;;;;5071588;28;20059;-62
2024/01/23 12:16:17;;;;;;;16.10;4.90;;;8.30;99.90;;;;;;5071898;28;20350;-60
2024/01/23 12:18:53;;;;;;;20.02;4.07;;;8.40;99.90;;;;;;5072345;28;20037;-62
2024/01/23 12:21:21;;;;;;;18.95;4.18;;;8.40;99.90;;;;;;5065888;28;20487;-62
2024/01/23 12:23:48;;;;;;;21.88;3.85;;;8.30;99.90;;;;;;5052961;28;20049;-61
2024/01/23 12:26:17;;;;;;;16.05;4.20;;;8.40;99.90;;;;;;5051959;28;20136;-61
2024/01/23 12:28:44;;;;;;;17.92;4.15;;;8.40;99.90;;;;;;5051161;28;20056;-61
2024/01/23 12:31:17;;;;;;;18.10;4.40;;;8.40;99.90;;;;;;5057116;28;20044;-62
2024/01/23 12:33:43;;;;;;;18.88;4.35;;;8.40;99.90;;;;;;5072029;28;20341;-61
2024/01/23 12:36:16;;;;;;;16.40;3.30;;;8.30;99.90;;;;;;5071663;28;20123;-62
2024/01/23 12:38:42;;;;;;;21.67;3.70;;;8.20;99.90;;;;;;5072603;28;20086;-63
2024/01/23 12:41:09;;;;;;;16.38;3.70;;;8.20;99.90;;;;;;5066947;28;20056;-60
2024/01/23 12:43:35;;;;;;;20.80;4.47;;;8.10;99.90;;;;;;5051620;28;20384;-63
2024/01/23 12:46:02;;;;;;;16.52;3.97;;;8.10;99.90;;;;;;5051334;28;20048;-62
2024/01/23 12:48:28;;;;;;;24.65;4.32;;;8.00;99.90;;;;;;5051425;28;20133;-60